Time;durP1;ratioP1;P1;durP2;ratioP2;P2;SDS_P1;SDS_P2;PMS_P1;PMS_P2;Temp;Humidity;BMP_temperature;BMP_pressure;BME280_temperature;BME280_humidity;BME280_pressure;Samples;Min_cycle;Max_cycle;Signal;HPM_P1;HPM_P2
2021/12/14 00:00:52;;;;;;;15.55;9.38;;;8.30;99.90;;;;;;4881133;29;20053;-86
2021/12/14 00:03:24;;;;;;;11.50;7.20;;;8.30;99.90;;;;;;4881150;29;20444;-86
2021/12/14 01:18:30;;;;;;;85.75;41.75;;;7.90;99.90;;;;;;4915971;29;19923;-85
2021/12/14 01:21:02;;;;;;;147.57;42.97;;;7.90;99.90;;;;;;4917957;29;20044;-86
2021/12/14 01:23:33;;;;;;;108.18;42.40;;;7.80;99.90;;;;;;4918139;29;20076;-86
2021/12/14 01:26:07;;;;;;;125.35;42.78;;;7.80;99.90;;;;;;4917494;29;20056;-86
2021/12/14 01:28:35;;;;;;;104.88;43.33;;;7.70;99.90;;;;;;4918899;29;20067;-86
2021/12/14 01:31:10;;;;;;;167.38;44.67;;;7.70;99.90;;;;;;4926055;29;20410;-86
2021/12/14 01:33:43;;;;;;;700.67;80.97;;;7.70;99.90;;;;;;4936316;29;20521;-86
2021/12/14 01:37:05;;;;;;;;;;;;;;;;;;;;;
2021/12/14 06:37:04;;;;;;;40.60;15.73;;;7.70;99.90;;;;;;5801810;24;20031;31
2021/12/14 08:48:38;;;;;;;66.47;17.45;;;7.70;99.90;;;;;;4989990;24;20059;-85
2021/12/14 08:51:40;;;;;;;43.22;16.92;;;7.60;99.90;;;;;;4753435;30;20064;-85
2021/12/14 08:55:06;;;;;;;48.97;15.05;;;7.80;99.90;;;;;;4752313;30;20492;-85
2021/12/14 08:58:13;;;;;;;55.78;21.27;;;9.10;99.90;;;;;;4740905;30;20246;-85
2021/12/14 09:43:33;;;;;;;29.63;12.52;;;8.00;99.90;;;;;;5800248;24;20030;31
2021/12/14 17:31:42;;;;;;;;;;;;;;;;;;;;;
2021/12/14 17:43:18;;;;;;;41.05;24.70;;;10.50;99.90;;;;;;4732220;30;20229;-92
2021/12/14 17:45:52;;;;;;;44.13;24.00;;;10.50;99.90;;;;;;4773001;30;20064;-91
2021/12/14 17:48:23;;;;;;;43.55;25.77;;;10.30;99.90;;;;;;4773675;30;20113;-91
2021/12/14 17:50:55;;;;;;;39.75;25.10;;;10.40;99.90;;;;;;4761843;30;20059;-92
2021/12/14 17:53:27;;;;;;;40.70;24.35;;;10.30;99.90;;;;;;4779187;30;20052;-92
2021/12/14 17:56:01;;;;;;;45.05;25.55;;;10.30;99.90;;;;;;4778286;30;20427;-92
2021/12/14 17:58:36;;;;;;;44.42;25.73;;;10.30;99.90;;;;;;4779471;30;20560;-91
2021/12/14 18:01:06;;;;;;;46.08;25.10;;;10.30;99.90;;;;;;4777173;30;20060;-91
2021/12/14 18:04:37;;;;;;;43.45;26.25;;;10.40;99.90;;;;;;4781090;30;20388;-93
2021/12/14 18:10:57;;;;;;;46.42;25.40;;;10.70;99.90;;;;;;4781028;30;20054;-93
2021/12/14 18:13:31;;;;;;;43.53;24.27;;;11.20;99.90;;;;;;4743386;30;20057;-91
2021/12/14 18:16:04;;;;;;;42.92;25.80;;;10.30;99.90;;;;;;4746793;30;20094;-94
2021/12/14 18:27:58;;;;;;;47.72;29.05;;;10.40;99.90;;;;;;4584727;30;20261;-91
2021/12/14 18:56:54;;;;;;;10.60;6.70;;;10.40;99.90;;;;;;4905218;24;19929;-91
2021/12/14 19:00:26;;;;;;;;;;;;;;;;;;;;;
2021/12/14 19:03:23;;;;;;;5.88;3.60;;;10.50;99.90;;;;;;4730250;30;20075;-93
2021/12/14 19:30:19;;;;;;;7.13;3.47;;;10.70;99.90;;;;;;4852204;24;20063;-93
2021/12/14 19:32:49;;;;;;;11.63;6.82;;;10.80;99.90;;;;;;4793044;30;20080;-92
2021/12/14 19:35:17;;;;;;;;;;;10.60;99.90;;;;;;4793495;30;20105;-88
2021/12/14 19:37:49;;;;;;;10.23;7.15;;;10.80;99.90;;;;;;4790246;30;19975;-87
2021/12/14 19:40:21;;;;;;;6.00;3.88;;;10.60;99.90;;;;;;4789926;30;20104;-87
2021/12/14 19:42:50;;;;;;;5.10;3.47;;;10.60;99.90;;;;;;4789653;30;20066;-86
2021/12/14 19:45:20;;;;;;;4.10;2.85;;;10.50;99.90;;;;;;4790175;30;20059;-87
2021/12/14 19:47:47;;;;;;;4.32;2.97;;;10.40;99.90;;;;;;4790095;30;20116;-86
2021/12/14 19:50:18;;;;;;;6.20;2.35;;;10.40;99.90;;;;;;4790540;30;20051;-87
2021/12/14 19:52:47;;;;;;;3.60;2.30;;;10.30;99.90;;;;;;4790105;30;20059;-86
2021/12/14 19:55:19;;;;;;;5.72;2.42;;;10.30;99.90;;;;;;4790237;30;20434;-86
2021/12/14 19:57:51;;;;;;;3.42;2.45;;;10.30;99.90;;;;;;4790188;30;20491;-86
2021/12/14 20:00:25;;;;;;;6.65;2.33;;;10.20;99.90;;;;;;4790394;30;20075;-87
2021/12/14 20:02:56;;;;;;;4.38;2.22;;;10.40;99.90;;;;;;4790526;30;20051;-86
2021/12/14 20:05:28;;;;;;;3.58;1.83;;;10.30;99.90;;;;;;4790307;30;20059;-87
2021/12/14 20:07:57;;;;;;;2.80;1.77;;;10.20;99.90;;;;;;4789779;30;20077;-86
2021/12/14 20:10:26;;;;;;;3.57;1.97;;;10.20;99.90;;;;;;4789461;29;20051;-86
2021/12/14 20:13:02;;;;;;;3.92;2.28;;;10.20;99.90;;;;;;4789635;30;20362;-86
2021/12/14 20:15:33;;;;;;;4.03;2.70;;;10.20;99.90;;;;;;4790153;30;20105;-86
2021/12/14 20:18:03;;;;;;;4.80;2.85;;;10.20;99.90;;;;;;4789858;30;20063;-86
2021/12/14 20:20:35;;;;;;;4.93;3.63;;;10.20;99.90;;;;;;4789591;30;20051;-87
2021/12/14 20:23:05;;;;;;;6.13;3.20;;;10.10;99.90;;;;;;4790125;30;20130;-87
2021/12/14 20:25:36;;;;;;;4.70;3.03;;;10.00;99.90;;;;;;4789750;30;20051;-87
2021/12/14 20:28:07;;;;;;;4.15;2.78;;;9.90;99.90;;;;;;4789324;30;20086;-87
2021/12/14 20:30:41;;;;;;;7.90;3.63;;;8.90;99.90;;;;;;4789622;30;20495;-85
2021/12/14 20:33:08;;;;;;;6.35;4.13;;;9.80;99.90;;;;;;4789338;30;20059;-87
2021/12/14 20:35:37;;;;;;;5.82;3.63;;;9.80;99.90;;;;;;4789274;30;20093;-87
2021/12/14 20:38:08;;;;;;;9.80;4.10;;;9.70;99.90;;;;;;4789091;30;20574;-86
2021/12/14 20:40:38;;;;;;;6.50;3.25;;;9.70;99.90;;;;;;4790377;30;20048;-88
2021/12/14 20:43:22;;;;;;;5.18;2.88;;;9.60;99.90;;;;;;4791084;30;20055;-87
2021/12/14 20:45:54;;;;;;;5.90;3.35;;;9.60;99.90;;;;;;4790267;30;20059;-87
2021/12/14 20:48:24;;;;;;;5.95;3.20;;;9.70;99.90;;;;;;4791042;30;20449;-87
2021/12/14 20:50:55;;;;;;;6.78;3.05;;;9.60;99.90;;;;;;4789669;30;20407;-87
2021/12/14 20:53:22;;;;;;;8.18;2.47;;;9.50;99.90;;;;;;4789386;30;20129;-87
2021/12/14 20:55:55;;;;;;;4.93;2.90;;;9.50;99.90;;;;;;4788971;30;20110;-87
2021/12/14 20:58:28;;;;;;;4.32;2.03;;;9.40;99.90;;;;;;4789268;30;20051;-87
2021/12/14 21:00:59;;;;;;;3.28;1.85;;;8.60;99.90;;;;;;4789454;30;20130;-87
2021/12/14 21:03:29;;;;;;;4.78;2.67;;;9.30;99.90;;;;;;4789488;30;20117;-87
2021/12/14 21:05:57;;;;;;;;;;;9.30;99.90;;;;;;4789426;30;20055;-87
2021/12/14 21:08:27;;;;;;;5.80;3.10;;;9.30;99.90;;;;;;4789125;30;19933;-87
2021/12/14 21:10:57;;;;;;;7.03;3.30;;;9.20;99.90;;;;;;4788660;30;20055;-87
2021/12/14 21:13:29;;;;;;;6.85;4.65;;;9.30;99.90;;;;;;4789325;30;20097;-87
2021/12/14 21:15:58;;;;;;;5.95;3.08;;;9.30;99.90;;;;;;4789849;29;20066;-86
2021/12/14 21:18:29;;;;;;;5.93;3.80;;;9.30;99.90;;;;;;4789859;29;20062;-86
2021/12/14 21:20:56;;;;;;;6.18;3.10;;;9.40;99.90;;;;;;4789045;30;20126;-86
2021/12/14 21:23:28;;;;;;;5.65;3.15;;;9.60;99.90;;;;;;4787466;30;20122;-86
2021/12/14 21:25:58;;;;;;;4.57;2.63;;;9.50;99.90;;;;;;4788147;30;20051;-86
2021/12/14 21:28:29;;;;;;;7.32;2.88;;;9.40;99.90;;;;;;4788331;30;20094;-86
2021/12/14 21:31:01;;;;;;;5.72;2.97;;;9.40;99.90;;;;;;4788190;30;20055;-86
2021/12/14 21:33:33;;;;;;;3.65;2.45;;;9.40;99.90;;;;;;4788339;30;20055;-86
2021/12/14 21:36:03;;;;;;;5.60;1.90;;;9.30;99.90;;;;;;4788570;30;20150;-87
2021/12/14 21:38:37;;;;;;;3.03;1.83;;;9.40;99.90;;;;;;4788911;30;20082;-86
2021/12/14 21:41:07;;;;;;;2.97;2.08;;;9.50;99.90;;;;;;4788634;30;20052;-86
2021/12/14 21:43:59;;;;;;;7.75;2.60;;;9.60;99.90;;;;;;4788619;30;20060;-85
2021/12/14 21:46:41;;;;;;;3.50;2.10;;;9.50;99.90;;;;;;4788529;30;20458;-86
2021/12/14 21:49:12;;;;;;;5.00;2.00;;;9.30;99.90;;;;;;4788837;30;20079;-86
2021/12/14 21:51:39;;;;;;;8.38;5.07;;;9.30;99.90;;;;;;4788771;30;20112;-87
2021/12/14 21:54:07;;;;;;;4.70;1.92;;;9.30;99.90;;;;;;4788709;30;20105;-86
2021/12/14 21:56:34;;;;;;;2.70;1.70;;;9.40;99.90;;;;;;4787412;29;20059;-87
2021/12/14 21:59:02;;;;;;;13.00;2.25;;;9.40;99.90;;;;;;4788589;30;20059;-87
2021/12/14 22:01:30;;;;;;;2.08;1.13;;;9.40;99.90;;;;;;4788700;30;20465;-87
2021/12/14 22:03:59;;;;;;;2.85;1.13;;;9.50;99.90;;;;;;4787987;30;20052;-87
2021/12/14 22:06:26;;;;;;;2.78;1.27;;;9.50;99.90;;;;;;4789466;29;20059;-86
2021/12/14 22:08:53;;;;;;;2.17;1.40;;;9.40;99.90;;;;;;4788601;30;20116;-86
2021/12/14 22:11:21;;;;;;;6.45;1.30;;;9.40;99.90;;;;;;4788139;30;20568;-87
2021/12/14 22:13:52;;;;;;;3.55;1.17;;;9.40;99.90;;;;;;4788554;30;20138;-86
2021/12/14 22:16:35;;;;;;;4.35;1.58;;;9.40;99.90;;;;;;4788503;30;20142;-86
2021/12/14 22:19:04;;;;;;;3.20;1.77;;;9.40;99.90;;;;;;4770488;30;20113;-87
2021/12/14 22:21:32;;;;;;;3.00;1.77;;;9.40;99.90;;;;;;4770385;30;20056;-86
2021/12/14 22:24:00;;;;;;;3.53;1.75;;;9.40;99.90;;;;;;4770225;30;20484;-87
2021/12/14 22:26:28;;;;;;;2.88;1.67;;;9.40;99.90;;;;;;4770567;30;20052;-87
2021/12/14 22:28:55;;;;;;;4.88;1.85;;;9.40;99.90;;;;;;4769858;30;20512;-86
2021/12/14 22:31:22;;;;;;;3.97;1.98;;;9.40;99.90;;;;;;4770577;30;20108;-86
2021/12/14 22:33:50;;;;;;;3.80;1.90;;;9.50;99.90;;;;;;4771058;30;20056;-86
2021/12/14 22:36:20;;;;;;;3.73;2.23;;;9.50;99.90;;;;;;4773728;30;20052;-86
2021/12/14 22:38:52;;;;;;;5.53;2.53;;;9.60;99.90;;;;;;4773842;30;20138;-86
2021/12/14 22:41:35;;;;;;;3.72;1.83;;;9.60;99.90;;;;;;4775578;30;20107;-86
2021/12/14 22:44:08;;;;;;;5.97;1.63;;;9.60;99.90;;;;;;4777356;30;20048;-86
2021/12/14 22:46:39;;;;;;;4.50;1.40;;;9.60;99.90;;;;;;4776096;30;20052;-87
2021/12/14 22:49:13;;;;;;;4.93;2.13;;;9.60;99.90;;;;;;4774855;30;20109;-86
2021/12/14 22:51:44;;;;;;;4.93;1.98;;;9.50;99.90;;;;;;4773550;30;20060;-87
2021/12/14 22:54:11;;;;;;;4.60;1.75;;;9.50;99.90;;;;;;4773640;30;20105;-86
2021/12/14 22:56:38;;;;;;;3.30;2.20;;;9.50;99.90;;;;;;4773245;30;20105;-87
2021/12/14 22:59:06;;;;;;;5.80;1.75;;;9.50;99.90;;;;;;4773510;30;20079;-86
2021/12/14 23:01:37;;;;;;;3.70;1.92;;;9.40;99.90;;;;;;4773846;30;20127;-86
2021/12/14 23:04:09;;;;;;;4.57;2.08;;;9.40;99.90;;;;;;4773067;30;20064;-86
2021/12/14 23:06:38;;;;;;;6.07;2.20;;;9.40;99.90;;;;;;4773549;30;20518;-87
2021/12/14 23:09:10;;;;;;;5.10;1.80;;;9.30;99.90;;;;;;4773228;30;20060;-87
2021/12/14 23:11:39;;;;;;;2.55;1.75;;;9.30;99.90;;;;;;4773120;30;20584;-87
2021/12/14 23:14:12;;;;;;;3.97;2.08;;;9.20;99.90;;;;;;4773100;30;20066;-86
2021/12/14 23:16:43;;;;;;;3.40;1.95;;;9.10;99.90;;;;;;4774430;30;20134;-87
2021/12/14 23:19:31;;;;;;;4.80;2.22;;;9.10;99.90;;;;;;4790906;30;20051;-87
2021/12/14 23:21:58;;;;;;;3.75;1.92;;;9.00;99.90;;;;;;4790662;30;20055;-87
2021/12/14 23:24:28;;;;;;;2.90;2.00;;;9.00;99.90;;;;;;4790692;30;20495;-87
2021/12/14 23:26:55;;;;;;;4.53;2.22;;;8.90;99.90;;;;;;4791240;30;20051;-87
2021/12/14 23:29:22;;;;;;;3.88;2.13;;;8.90;99.90;;;;;;4790150;29;20098;-87
2021/12/14 23:31:50;;;;;;;4.90;2.22;;;8.80;99.90;;;;;;4790149;30;20055;-87
2021/12/14 23:34:18;;;;;;;2.75;1.80;;;8.80;99.90;;;;;;4790086;30;20538;-87
2021/12/14 23:36:45;;;;;;;7.05;1.60;;;8.80;99.90;;;;;;4790024;30;20104;-87
2021/12/14 23:39:12;;;;;;;3.20;1.70;;;8.80;99.90;;;;;;4789940;30;20456;-86
2021/12/14 23:41:41;;;;;;;3.00;1.42;;;8.80;99.90;;;;;;4789737;30;20466;-86
2021/12/14 23:44:11;;;;;;;;;;;8.90;99.90;;;;;;4790323;30;20051;-87
2021/12/14 23:49:23;;;;;;;2.08;1.00;;;8.80;99.90;;;;;;4790121;30;20126;-87
2021/12/14 23:51:50;;;;;;;2.10;1.10;;;8.80;99.90;;;;;;4790105;30;20086;-87
2021/12/14 23:54:19;;;;;;;2.20;1.02;;;7.70;99.90;;;;;;4789997;30;20055;-86
2021/12/14 23:56:48;;;;;;;1.20;0.63;;;8.70;99.90;;;;;;4798686;29;20398;-87
2021/12/14 23:59:17;;;;;;;2.17;0.98;;;8.80;99.90;;;;;;4808234;29;20051;-87
